sensor_id;sensor_type;location;lat;lon;timestamp;P1;durP1;ratioP1;P2;durP2;ratioP2
12947;SDS011;6539;49.476;8.484;2023-01-19T00:00:53;11.40;;;7.07;;
12947;SDS011;6539;49.476;8.484;2023-01-19T00:03:19;8.93;;;7.33;;
12947;SDS011;6539;49.476;8.484;2023-01-19T00:05:45;12.17;;;6.87;;
12947;SDS011;6539;49.476;8.484;2023-01-19T00:08:11;11.17;;;7.10;;
12947;SDS011;6539;49.476;8.484;2023-01-19T00:10:43;11.50;;;7.33;;
12947;SDS011;6539;49.476;8.484;2023-01-19T00:13:12;14.20;;;7.23;;
12947;SDS011;6539;49.476;8.484;2023-01-19T00:15:39;9.40;;;6.97;;
12947;SDS011;6539;49.476;8.484;2023-01-19T00:18:05;11.97;;;7.90;;
12947;SDS011;6539;49.476;8.484;2023-01-19T00:20:31;10.63;;;7.97;;
12947;SDS011;6539;49.476;8.484;2023-01-19T00:22:59;9.73;;;6.97;;
12947;SDS011;6539;49.476;8.484;2023-01-19T00:25:29;8.87;;;7.37;;
12947;SDS011;6539;49.476;8.484;2023-01-19T00:28:00;10.97;;;7.97;;
12947;SDS011;6539;49.476;8.484;2023-01-19T00:30:26;11.63;;;8.03;;
12947;SDS011;6539;49.476;8.484;2023-01-19T00:32:51;14.17;;;8.03;;
12947;SDS011;6539;49.476;8.484;2023-01-19T00:35:17;15.13;;;7.97;;
12947;SDS011;6539;49.476;8.484;2023-01-19T00:37:43;11.90;;;8.47;;
12947;SDS011;6539;49.476;8.484;2023-01-19T00:40:10;9.67;;;7.67;;
12947;SDS011;6539;49.476;8.484;2023-01-19T00:42:39;13.50;;;8.83;;
12947;SDS011;6539;49.476;8.484;2023-01-19T00:45:07;12.50;;;7.83;;
12947;SDS011;6539;49.476;8.484;2023-01-19T00:47:38;16.43;;;9.03;;
12947;SDS011;6539;49.476;8.484;2023-01-19T00:50:05;14.13;;;9.17;;
12947;SDS011;6539;49.476;8.484;2023-01-19T00:52:38;14.10;;;8.97;;
12947;SDS011;6539;49.476;8.484;2023-01-19T00:55:08;11.10;;;8.57;;
12947;SDS011;6539;49.476;8.484;2023-01-19T00:57:38;13.07;;;9.20;;
12947;SDS011;6539;49.476;8.484;2023-01-19T01:00:05;11.60;;;8.97;;
12947;SDS011;6539;49.476;8.484;2023-01-19T01:02:36;11.27;;;9.27;;
12947;SDS011;6539;49.476;8.484;2023-01-19T01:05:04;13.40;;;8.97;;
12947;SDS011;6539;49.476;8.484;2023-01-19T01:07:36;11.30;;;8.70;;
12947;SDS011;6539;49.476;8.484;2023-01-19T01:10:09;14.97;;;9.37;;
12947;SDS011;6539;49.476;8.484;2023-01-19T01:12:43;14.07;;;9.20;;
12947;SDS011;6539;49.476;8.484;2023-01-19T01:15:10;12.93;;;8.77;;
12947;SDS011;6539;49.476;8.484;2023-01-19T01:17:42;13.73;;;9.20;;
12947;SDS011;6539;49.476;8.484;2023-01-19T01:20:17;15.53;;;10.00;;
12947;SDS011;6539;49.476;8.484;2023-01-19T01:22:47;14.60;;;8.53;;
12947;SDS011;6539;49.476;8.484;2023-01-19T01:25:16;14.00;;;9.47;;
12947;SDS011;6539;49.476;8.484;2023-01-19T01:27:46;15.13;;;9.93;;
12947;SDS011;6539;49.476;8.484;2023-01-19T01:30:15;16.10;;;9.83;;
12947;SDS011;6539;49.476;8.484;2023-01-19T01:32:44;13.63;;;9.70;;
12947;SDS011;6539;49.476;8.484;2023-01-19T01:35:12;15.93;;;10.03;;
12947;SDS011;6539;49.476;8.484;2023-01-19T01:37:38;16.93;;;9.13;;
12947;SDS011;6539;49.476;8.484;2023-01-19T01:40:07;14.60;;;9.67;;
12947;SDS011;6539;49.476;8.484;2023-01-19T01:42:38;14.97;;;10.13;;
12947;SDS011;6539;49.476;8.484;2023-01-19T01:45:06;13.40;;;9.10;;
12947;SDS011;6539;49.476;8.484;2023-01-19T01:48:04;15.47;;;9.83;;
12947;SDS011;6539;49.476;8.484;2023-01-19T01:50:56;16.00;;;9.87;;
12947;SDS011;6539;49.476;8.484;2023-01-19T01:56:48;14.13;;;9.53;;
12947;SDS011;6539;49.476;8.484;2023-01-19T01:59:18;14.93;;;9.93;;
12947;SDS011;6539;49.476;8.484;2023-01-19T02:01:53;14.03;;;10.17;;
12947;SDS011;6539;49.476;8.484;2023-01-19T02:05:00;16.90;;;10.57;;
12947;SDS011;6539;49.476;8.484;2023-01-19T02:10:44;16.27;;;10.33;;
12947;SDS011;6539;49.476;8.484;2023-01-19T02:13:31;18.27;;;11.00;;
12947;SDS011;6539;49.476;8.484;2023-01-19T02:16:07;19.33;;;10.70;;
12947;SDS011;6539;49.476;8.484;2023-01-19T02:18:35;16.07;;;9.80;;
12947;SDS011;6539;49.476;8.484;2023-01-19T02:24:12;18.07;;;10.50;;
12947;SDS011;6539;49.476;8.484;2023-01-19T02:26:41;16.80;;;11.47;;
12947;SDS011;6539;49.476;8.484;2023-01-19T02:29:17;18.03;;;11.40;;
12947;SDS011;6539;49.476;8.484;2023-01-19T02:31:46;14.10;;;10.37;;
12947;SDS011;6539;49.476;8.484;2023-01-19T02:34:16;14.03;;;10.83;;
12947;SDS011;6539;49.476;8.484;2023-01-19T02:36:52;17.57;;;11.73;;
12947;SDS011;6539;49.476;8.484;2023-01-19T02:39:33;17.50;;;11.13;;
12947;SDS011;6539;49.476;8.484;2023-01-19T02:42:29;15.60;;;11.80;;
12947;SDS011;6539;49.476;8.484;2023-01-19T02:45:07;18.83;;;11.17;;
12947;SDS011;6539;49.476;8.484;2023-01-19T02:47:40;17.63;;;11.20;;
12947;SDS011;6539;49.476;8.484;2023-01-19T02:53:28;18.67;;;11.80;;
12947;SDS011;6539;49.476;8.484;2023-01-19T03:04:58;15.37;;;11.37;;
12947;SDS011;6539;49.476;8.484;2023-01-19T03:10:30;16.87;;;11.77;;
12947;SDS011;6539;49.476;8.484;2023-01-19T03:13:29;18.03;;;11.50;;
12947;SDS011;6539;49.476;8.484;2023-01-19T03:16:11;18.60;;;11.60;;
12947;SDS011;6539;49.476;8.484;2023-01-19T03:18:53;14.50;;;10.73;;
12947;SDS011;6539;49.476;8.484;2023-01-19T03:21:28;18.70;;;11.77;;
12947;SDS011;6539;49.476;8.484;2023-01-19T03:24:00;16.77;;;12.00;;
12947;SDS011;6539;49.476;8.484;2023-01-19T03:26:31;16.10;;;11.30;;
12947;SDS011;6539;49.476;8.484;2023-01-19T03:29:11;15.77;;;11.00;;
12947;SDS011;6539;49.476;8.484;2023-01-19T03:31:42;14.90;;;11.07;;
12947;SDS011;6539;49.476;8.484;2023-01-19T03:34:11;15.47;;;12.23;;
12947;SDS011;6539;49.476;8.484;2023-01-19T03:36:43;17.20;;;11.53;;
12947;SDS011;6539;49.476;8.484;2023-01-19T03:39:20;15.50;;;11.10;;
12947;SDS011;6539;49.476;8.484;2023-01-19T03:42:12;18.73;;;11.20;;
12947;SDS011;6539;49.476;8.484;2023-01-19T03:44:42;16.57;;;10.80;;
12947;SDS011;6539;49.476;8.484;2023-01-19T03:47:14;14.63;;;10.53;;
12947;SDS011;6539;49.476;8.484;2023-01-19T03:49:42;15.67;;;10.30;;
12947;SDS011;6539;49.476;8.484;2023-01-19T03:52:10;15.77;;;10.17;;
12947;SDS011;6539;49.476;8.484;2023-01-19T03:54:36;15.93;;;10.80;;
12947;SDS011;6539;49.476;8.484;2023-01-19T03:57:03;14.80;;;10.40;;
12947;SDS011;6539;49.476;8.484;2023-01-19T03:59:29;14.73;;;10.80;;
12947;SDS011;6539;49.476;8.484;2023-01-19T04:01:54;14.37;;;10.23;;
12947;SDS011;6539;49.476;8.484;2023-01-19T04:04:20;17.33;;;11.50;;
12947;SDS011;6539;49.476;8.484;2023-01-19T04:06:46;14.87;;;10.40;;
12947;SDS011;6539;49.476;8.484;2023-01-19T04:09:12;17.17;;;11.60;;
12947;SDS011;6539;49.476;8.484;2023-01-19T04:11:43;15.23;;;11.37;;
12947;SDS011;6539;49.476;8.484;2023-01-19T04:14:09;15.13;;;10.93;;
12947;SDS011;6539;49.476;8.484;2023-01-19T04:16:34;17.10;;;11.07;;
12947;SDS011;6539;49.476;8.484;2023-01-19T04:19:00;19.63;;;11.10;;
12947;SDS011;6539;49.476;8.484;2023-01-19T04:21:26;13.80;;;10.37;;
12947;SDS011;6539;49.476;8.484;2023-01-19T04:23:52;15.10;;;10.80;;
12947;SDS011;6539;49.476;8.484;2023-01-19T04:26:17;14.50;;;11.20;;
12947;SDS011;6539;49.476;8.484;2023-01-19T04:28:44;17.77;;;11.03;;
12947;SDS011;6539;49.476;8.484;2023-01-19T04:31:10;14.83;;;11.17;;
12947;SDS011;6539;49.476;8.484;2023-01-19T04:33:36;18.70;;;11.13;;
12947;SDS011;6539;49.476;8.484;2023-01-19T04:36:02;16.23;;;11.20;;
12947;SDS011;6539;49.476;8.484;2023-01-19T04:38:28;17.20;;;11.80;;
12947;SDS011;6539;49.476;8.484;2023-01-19T04:40:53;18.17;;;10.60;;
12947;SDS011;6539;49.476;8.484;2023-01-19T04:43:22;16.30;;;10.13;;
12947;SDS011;6539;49.476;8.484;2023-01-19T04:45:52;15.57;;;10.57;;
12947;SDS011;6539;49.476;8.484;2023-01-19T04:48:18;15.93;;;11.53;;
12947;SDS011;6539;49.476;8.484;2023-01-19T04:50:44;14.03;;;10.27;;
12947;SDS011;6539;49.476;8.484;2023-01-19T04:53:11;14.43;;;11.10;;
12947;SDS011;6539;49.476;8.484;2023-01-19T04:55:37;13.23;;;9.80;;
12947;SDS011;6539;49.476;8.484;2023-01-19T04:58:04;14.07;;;10.27;;
12947;SDS011;6539;49.476;8.484;2023-01-19T05:00:30;14.43;;;10.67;;
12947;SDS011;6539;49.476;8.484;2023-01-19T05:02:56;14.40;;;10.70;;
12947;SDS011;6539;49.476;8.484;2023-01-19T05:05:24;14.50;;;10.63;;
12947;SDS011;6539;49.476;8.484;2023-01-19T05:07:51;16.23;;;10.23;;
12947;SDS011;6539;49.476;8.484;2023-01-19T05:10:17;16.27;;;10.77;;
12947;SDS011;6539;49.476;8.484;2023-01-19T05:12:43;12.73;;;10.00;;
12947;SDS011;6539;49.476;8.484;2023-01-19T05:15:10;18.50;;;11.83;;
12947;SDS011;6539;49.476;8.484;2023-01-19T05:17:36;12.50;;;10.67;;
12947;SDS011;6539;49.476;8.484;2023-01-19T05:20:02;16.73;;;11.63;;
12947;SDS011;6539;49.476;8.484;2023-01-19T05:22:30;16.80;;;10.43;;
12947;SDS011;6539;49.476;8.484;2023-01-19T05:24:58;17.40;;;11.63;;
12947;SDS011;6539;49.476;8.484;2023-01-19T05:27:25;17.30;;;11.60;;
12947;SDS011;6539;49.476;8.484;2023-01-19T05:29:51;16.73;;;11.00;;
12947;SDS011;6539;49.476;8.484;2023-01-19T05:32:17;16.53;;;11.47;;
12947;SDS011;6539;49.476;8.484;2023-01-19T05:34:45;15.63;;;10.70;;
12947;SDS011;6539;49.476;8.484;2023-01-19T05:37:13;16.27;;;10.90;;
12947;SDS011;6539;49.476;8.484;2023-01-19T05:39:39;14.83;;;11.27;;
12947;SDS011;6539;49.476;8.484;2023-01-19T05:42:07;16.37;;;10.80;;
12947;SDS011;6539;49.476;8.484;2023-01-19T05:44:35;15.93;;;10.47;;
12947;SDS011;6539;49.476;8.484;2023-01-19T05:47:06;13.97;;;10.53;;
12947;SDS011;6539;49.476;8.484;2023-01-19T05:49:31;15.43;;;11.30;;
12947;SDS011;6539;49.476;8.484;2023-01-19T05:52:05;15.87;;;12.17;;
12947;SDS011;6539;49.476;8.484;2023-01-19T05:54:33;17.43;;;11.70;;
12947;SDS011;6539;49.476;8.484;2023-01-19T05:57:04;19.47;;;11.67;;
12947;SDS011;6539;49.476;8.484;2023-01-19T05:59:33;15.90;;;11.63;;
12947;SDS011;6539;49.476;8.484;2023-01-19T06:01:59;16.93;;;11.37;;
12947;SDS011;6539;49.476;8.484;2023-01-19T06:04:27;16.30;;;10.97;;
12947;SDS011;6539;49.476;8.484;2023-01-19T06:06:55;13.07;;;10.17;;
12947;SDS011;6539;49.476;8.484;2023-01-19T06:09:21;17.33;;;10.77;;
12947;SDS011;6539;49.476;8.484;2023-01-19T06:11:49;14.10;;;10.60;;
12947;SDS011;6539;49.476;8.484;2023-01-19T06:14:21;16.90;;;10.90;;
12947;SDS011;6539;49.476;8.484;2023-01-19T06:16:50;16.23;;;10.83;;
12947;SDS011;6539;49.476;8.484;2023-01-19T06:19:16;17.43;;;11.37;;
12947;SDS011;6539;49.476;8.484;2023-01-19T06:21:46;16.67;;;11.20;;
12947;SDS011;6539;49.476;8.484;2023-01-19T06:24:16;13.80;;;10.53;;
12947;SDS011;6539;49.476;8.484;2023-01-19T06:26:42;17.83;;;12.07;;
12947;SDS011;6539;49.476;8.484;2023-01-19T06:29:08;16.30;;;11.43;;
12947;SDS011;6539;49.476;8.484;2023-01-19T06:31:36;18.37;;;12.33;;
12947;SDS011;6539;49.476;8.484;2023-01-19T06:34:04;19.23;;;12.23;;
12947;SDS011;6539;49.476;8.484;2023-01-19T06:36:32;15.83;;;11.37;;
12947;SDS011;6539;49.476;8.484;2023-01-19T06:39:03;13.73;;;10.67;;
12947;SDS011;6539;49.476;8.484;2023-01-19T06:41:32;14.93;;;11.27;;
12947;SDS011;6539;49.476;8.484;2023-01-19T06:43:59;17.13;;;10.40;;
12947;SDS011;6539;49.476;8.484;2023-01-19T06:46:25;15.70;;;11.57;;
12947;SDS011;6539;49.476;8.484;2023-01-19T06:48:51;14.50;;;11.50;;
12947;SDS011;6539;49.476;8.484;2023-01-19T06:51:18;14.40;;;11.27;;
12947;SDS011;6539;49.476;8.484;2023-01-19T06:53:50;16.73;;;11.40;;
12947;SDS011;6539;49.476;8.484;2023-01-19T06:56:18;16.37;;;11.40;;
12947;SDS011;6539;49.476;8.484;2023-01-19T06:58:45;19.90;;;12.43;;
12947;SDS011;6539;49.476;8.484;2023-01-19T07:01:12;18.83;;;12.57;;
12947;SDS011;6539;49.476;8.484;2023-01-19T07:03:38;17.93;;;11.90;;
12947;SDS011;6539;49.476;8.484;2023-01-19T07:06:08;16.07;;;11.17;;
12947;SDS011;6539;49.476;8.484;2023-01-19T07:08:39;18.43;;;12.13;;
12947;SDS011;6539;49.476;8.484;2023-01-19T07:11:07;16.93;;;12.10;;
12947;SDS011;6539;49.476;8.484;2023-01-19T07:13:36;15.43;;;10.90;;
12947;SDS011;6539;49.476;8.484;2023-01-19T07:16:07;17.37;;;12.47;;
12947;SDS011;6539;49.476;8.484;2023-01-19T07:18:36;15.97;;;11.27;;
12947;SDS011;6539;49.476;8.484;2023-01-19T07:21:04;17.50;;;12.20;;
12947;SDS011;6539;49.476;8.484;2023-01-19T07:23:33;18.57;;;11.43;;
12947;SDS011;6539;49.476;8.484;2023-01-19T07:25:59;18.73;;;11.33;;
12947;SDS011;6539;49.476;8.484;2023-01-19T07:28:26;15.67;;;11.87;;
12947;SDS011;6539;49.476;8.484;2023-01-19T07:30:56;19.63;;;11.57;;
12947;SDS011;6539;49.476;8.484;2023-01-19T07:33:23;16.47;;;10.97;;
12947;SDS011;6539;49.476;8.484;2023-01-19T07:35:50;13.50;;;10.50;;
12947;SDS011;6539;49.476;8.484;2023-01-19T07:38:19;15.87;;;11.47;;
12947;SDS011;6539;49.476;8.484;2023-01-19T07:40:45;19.03;;;12.20;;
12947;SDS011;6539;49.476;8.484;2023-01-19T07:43:14;16.77;;;11.10;;
12947;SDS011;6539;49.476;8.484;2023-01-19T07:45:47;16.67;;;11.60;;
12947;SDS011;6539;49.476;8.484;2023-01-19T07:48:13;18.23;;;10.77;;
12947;SDS011;6539;49.476;8.484;2023-01-19T07:50:39;16.30;;;10.00;;
12947;SDS011;6539;49.476;8.484;2023-01-19T07:53:07;16.90;;;10.77;;
12947;SDS011;6539;49.476;8.484;2023-01-19T07:55:38;16.10;;;10.70;;
12947;SDS011;6539;49.476;8.484;2023-01-19T07:58:09;15.60;;;11.63;;
12947;SDS011;6539;49.476;8.484;2023-01-19T08:00:35;18.40;;;11.17;;
12947;SDS011;6539;49.476;8.484;2023-01-19T08:03:03;17.00;;;11.03;;
12947;SDS011;6539;49.476;8.484;2023-01-19T08:05:30;15.97;;;11.23;;
12947;SDS011;6539;49.476;8.484;2023-01-19T08:07:57;15.90;;;11.13;;
12947;SDS011;6539;49.476;8.484;2023-01-19T08:10:27;17.00;;;11.57;;
12947;SDS011;6539;49.476;8.484;2023-01-19T08:12:53;16.03;;;10.77;;
12947;SDS011;6539;49.476;8.484;2023-01-19T08:15:21;15.30;;;11.37;;
12947;SDS011;6539;49.476;8.484;2023-01-19T08:17:57;16.30;;;11.27;;
12947;SDS011;6539;49.476;8.484;2023-01-19T08:20:29;16.50;;;11.53;;
12947;SDS011;6539;49.476;8.484;2023-01-19T08:22:56;16.33;;;11.13;;
12947;SDS011;6539;49.476;8.484;2023-01-19T08:25:31;23.17;;;10.50;;
12947;SDS011;6539;49.476;8.484;2023-01-19T08:27:58;17.03;;;11.10;;
12947;SDS011;6539;49.476;8.484;2023-01-19T08:30:25;18.27;;;11.87;;
12947;SDS011;6539;49.476;8.484;2023-01-19T08:32:51;14.23;;;10.60;;
12947;SDS011;6539;49.476;8.484;2023-01-19T08:35:18;17.07;;;11.57;;
12947;SDS011;6539;49.476;8.484;2023-01-19T08:37:44;16.00;;;11.27;;
12947;SDS011;6539;49.476;8.484;2023-01-19T08:40:13;21.73;;;12.13;;
12947;SDS011;6539;49.476;8.484;2023-01-19T08:42:39;15.83;;;11.77;;
12947;SDS011;6539;49.476;8.484;2023-01-19T08:45:05;16.77;;;11.53;;
12947;SDS011;6539;49.476;8.484;2023-01-19T08:47:33;19.87;;;10.90;;
12947;SDS011;6539;49.476;8.484;2023-01-19T08:49:59;18.53;;;11.33;;
12947;SDS011;6539;49.476;8.484;2023-01-19T08:52:29;14.57;;;9.87;;
12947;SDS011;6539;49.476;8.484;2023-01-19T08:54:55;15.47;;;11.23;;
12947;SDS011;6539;49.476;8.484;2023-01-19T08:57:25;15.80;;;10.60;;
12947;SDS011;6539;49.476;8.484;2023-01-19T08:59:52;17.67;;;10.50;;
12947;SDS011;6539;49.476;8.484;2023-01-19T09:02:17;15.67;;;10.47;;
12947;SDS011;6539;49.476;8.484;2023-01-19T09:04:43;14.40;;;10.90;;
12947;SDS011;6539;49.476;8.484;2023-01-19T09:07:11;20.00;;;11.17;;
12947;SDS011;6539;49.476;8.484;2023-01-19T09:09:37;15.40;;;10.93;;
12947;SDS011;6539;49.476;8.484;2023-01-19T09:12:07;16.10;;;10.83;;
12947;SDS011;6539;49.476;8.484;2023-01-19T09:14:33;14.07;;;10.30;;
12947;SDS011;6539;49.476;8.484;2023-01-19T09:17:01;13.30;;;9.90;;
12947;SDS011;6539;49.476;8.484;2023-01-19T09:19:32;14.73;;;10.20;;
12947;SDS011;6539;49.476;8.484;2023-01-19T09:21:58;16.00;;;9.90;;
12947;SDS011;6539;49.476;8.484;2023-01-19T09:24:23;18.27;;;11.53;;
12947;SDS011;6539;49.476;8.484;2023-01-19T09:26:49;21.63;;;12.00;;
12947;SDS011;6539;49.476;8.484;2023-01-19T09:29:15;15.63;;;10.47;;
12947;SDS011;6539;49.476;8.484;2023-01-19T09:31:41;15.00;;;10.40;;
12947;SDS011;6539;49.476;8.484;2023-01-19T09:34:08;11.17;;;9.70;;
12947;SDS011;6539;49.476;8.484;2023-01-19T09:36:37;14.03;;;9.60;;
12947;SDS011;6539;49.476;8.484;2023-01-19T09:39:09;12.87;;;9.70;;
12947;SDS011;6539;49.476;8.484;2023-01-19T09:41:35;13.37;;;9.20;;
12947;SDS011;6539;49.476;8.484;2023-01-19T09:44:12;13.63;;;10.37;;
12947;SDS011;6539;49.476;8.484;2023-01-19T09:46:50;14.67;;;9.10;;
12947;SDS011;6539;49.476;8.484;2023-01-19T09:49:21;16.07;;;9.80;;
12947;SDS011;6539;49.476;8.484;2023-01-19T09:52:02;14.60;;;9.97;;
12947;SDS011;6539;49.476;8.484;2023-01-19T09:54:39;11.50;;;9.30;;
12947;SDS011;6539;49.476;8.484;2023-01-19T09:57:13;11.63;;;9.27;;
12947;SDS011;6539;49.476;8.484;2023-01-19T09:59:41;14.37;;;9.93;;
12947;SDS011;6539;49.476;8.484;2023-01-19T10:05:01;13.17;;;9.60;;
12947;SDS011;6539;49.476;8.484;2023-01-19T10:10:52;17.57;;;10.07;;
12947;SDS011;6539;49.476;8.484;2023-01-19T10:13:30;14.73;;;9.60;;
12947;SDS011;6539;49.476;8.484;2023-01-19T10:19:26;14.73;;;9.63;;
12947;SDS011;6539;49.476;8.484;2023-01-19T10:22:03;12.17;;;9.10;;
12947;SDS011;6539;49.476;8.484;2023-01-19T10:24:56;15.20;;;9.90;;
12947;SDS011;6539;49.476;8.484;2023-01-19T10:27:30;14.00;;;10.07;;
12947;SDS011;6539;49.476;8.484;2023-01-19T10:29:59;13.23;;;9.67;;
12947;SDS011;6539;49.476;8.484;2023-01-19T10:32:29;14.03;;;9.80;;
12947;SDS011;6539;49.476;8.484;2023-01-19T10:35:08;15.03;;;9.67;;
12947;SDS011;6539;49.476;8.484;2023-01-19T10:37:49;15.73;;;9.43;;
12947;SDS011;6539;49.476;8.484;2023-01-19T10:46:15;13.70;;;9.40;;
12947;SDS011;6539;49.476;8.484;2023-01-19T10:49:01;12.20;;;9.57;;
12947;SDS011;6539;49.476;8.484;2023-01-19T10:51:28;15.53;;;10.13;;
12947;SDS011;6539;49.476;8.484;2023-01-19T10:53:55;12.43;;;9.30;;
12947;SDS011;6539;49.476;8.484;2023-01-19T10:56:28;12.00;;;8.83;;
12947;SDS011;6539;49.476;8.484;2023-01-19T10:58:59;11.87;;;9.77;;
12947;SDS011;6539;49.476;8.484;2023-01-19T11:01:27;12.57;;;10.03;;
12947;SDS011;6539;49.476;8.484;2023-01-19T11:03:55;12.57;;;9.57;;
12947;SDS011;6539;49.476;8.484;2023-01-19T11:06:29;13.30;;;9.73;;
12947;SDS011;6539;49.476;8.484;2023-01-19T11:09:10;16.27;;;9.67;;
12947;SDS011;6539;49.476;8.484;2023-01-19T11:11:50;15.90;;;10.93;;
12947;SDS011;6539;49.476;8.484;2023-01-19T11:14:21;12.43;;;9.23;;
12947;SDS011;6539;49.476;8.484;2023-01-19T11:16:55;14.33;;;10.40;;
12947;SDS011;6539;49.476;8.484;2023-01-19T11:19:24;14.60;;;9.93;;
12947;SDS011;6539;49.476;8.484;2023-01-19T11:24:46;13.30;;;9.57;;
12947;SDS011;6539;49.476;8.484;2023-01-19T11:27:16;14.47;;;9.90;;
12947;SDS011;6539;49.476;8.484;2023-01-19T11:29:47;12.97;;;9.80;;
12947;SDS011;6539;49.476;8.484;2023-01-19T11:32:24;15.00;;;10.37;;
12947;SDS011;6539;49.476;8.484;2023-01-19T11:34:52;16.43;;;9.93;;
12947;SDS011;6539;49.476;8.484;2023-01-19T11:39:45;15.60;;;10.03;;
12947;SDS011;6539;49.476;8.484;2023-01-19T11:42:14;13.83;;;9.87;;
12947;SDS011;6539;49.476;8.484;2023-01-19T11:47:42;14.33;;;9.83;;
12947;SDS011;6539;49.476;8.484;2023-01-19T11:50:23;16.33;;;9.63;;
12947;SDS011;6539;49.476;8.484;2023-01-19T11:53:03;17.67;;;10.90;;
12947;SDS011;6539;49.476;8.484;2023-01-19T11:55:57;14.47;;;9.60;;
12947;SDS011;6539;49.476;8.484;2023-01-19T11:58:28;14.63;;;9.93;;
12947;SDS011;6539;49.476;8.484;2023-01-19T12:01:05;15.73;;;9.80;;
12947;SDS011;6539;49.476;8.484;2023-01-19T12:03:55;12.57;;;9.20;;
12947;SDS011;6539;49.476;8.484;2023-01-19T12:06:34;17.43;;;10.03;;
12947;SDS011;6539;49.476;8.484;2023-01-19T12:11:39;13.57;;;9.40;;
12947;SDS011;6539;49.476;8.484;2023-01-19T12:14:16;13.97;;;10.20;;
12947;SDS011;6539;49.476;8.484;2023-01-19T12:16:49;16.10;;;9.63;;
12947;SDS011;6539;49.476;8.484;2023-01-19T12:19:25;13.37;;;9.00;;
12947;SDS011;6539;49.476;8.484;2023-01-19T12:22:09;13.33;;;9.20;;
12947;SDS011;6539;49.476;8.484;2023-01-19T12:24:58;13.60;;;8.67;;
12947;SDS011;6539;49.476;8.484;2023-01-19T12:27:46;16.13;;;8.57;;
12947;SDS011;6539;49.476;8.484;2023-01-19T12:32:51;11.10;;;8.47;;
12947;SDS011;6539;49.476;8.484;2023-01-19T12:35:56;16.67;;;8.53;;
12947;SDS011;6539;49.476;8.484;2023-01-19T12:46:49;13.73;;;9.00;;
12947;SDS011;6539;49.476;8.484;2023-01-19T12:49:32;11.60;;;8.53;;
12947;SDS011;6539;49.476;8.484;2023-01-19T12:52:28;12.37;;;8.60;;
12947;SDS011;6539;49.476;8.484;2023-01-19T13:01:10;10.73;;;7.87;;
12947;SDS011;6539;49.476;8.484;2023-01-19T13:03:43;11.37;;;7.47;;
12947;SDS011;6539;49.476;8.484;2023-01-19T13:07:07;12.03;;;7.63;;
12947;SDS011;6539;49.476;8.484;2023-01-19T13:09:34;13.70;;;8.43;;
12947;SDS011;6539;49.476;8.484;2023-01-19T13:12:18;14.17;;;7.87;;
12947;SDS011;6539;49.476;8.484;2023-01-19T13:14:49;10.90;;;7.87;;
12947;SDS011;6539;49.476;8.484;2023-01-19T13:17:53;10.03;;;7.60;;
12947;SDS011;6539;49.476;8.484;2023-01-19T13:20:23;10.00;;;7.87;;
12947;SDS011;6539;49.476;8.484;2023-01-19T13:23:15;10.83;;;8.07;;
12947;SDS011;6539;49.476;8.484;2023-01-19T13:25:49;11.67;;;8.03;;
12947;SDS011;6539;49.476;8.484;2023-01-19T13:28:41;12.03;;;8.07;;
12947;SDS011;6539;49.476;8.484;2023-01-19T13:31:10;12.93;;;8.40;;
12947;SDS011;6539;49.476;8.484;2023-01-19T13:33:58;11.13;;;7.40;;
12947;SDS011;6539;49.476;8.484;2023-01-19T13:36:29;8.13;;;6.93;;
12947;SDS011;6539;49.476;8.484;2023-01-19T13:39:05;10.57;;;7.20;;
12947;SDS011;6539;49.476;8.484;2023-01-19T13:41:38;10.47;;;7.37;;
12947;SDS011;6539;49.476;8.484;2023-01-19T13:44:07;10.80;;;8.30;;
12947;SDS011;6539;49.476;8.484;2023-01-19T13:46:47;13.30;;;8.40;;
12947;SDS011;6539;49.476;8.484;2023-01-19T13:49:28;9.37;;;7.47;;
12947;SDS011;6539;49.476;8.484;2023-01-19T13:52:24;10.17;;;7.37;;
12947;SDS011;6539;49.476;8.484;2023-01-19T13:55:00;12.17;;;8.37;;
12947;SDS011;6539;49.476;8.484;2023-01-19T13:57:33;10.60;;;7.73;;
12947;SDS011;6539;49.476;8.484;2023-01-19T14:08:03;10.40;;;7.83;;
12947;SDS011;6539;49.476;8.484;2023-01-19T14:10:40;8.40;;;7.43;;
12947;SDS011;6539;49.476;8.484;2023-01-19T14:16:06;9.37;;;7.30;;
12947;SDS011;6539;49.476;8.484;2023-01-19T14:18:40;8.27;;;7.40;;
12947;SDS011;6539;49.476;8.484;2023-01-19T14:21:10;10.40;;;7.27;;
12947;SDS011;6539;49.476;8.484;2023-01-19T14:37:00;10.53;;;6.70;;
12947;SDS011;6539;49.476;8.484;2023-01-19T14:39:33;8.33;;;6.43;;
12947;SDS011;6539;49.476;8.484;2023-01-19T14:42:00;10.30;;;7.37;;
12947;SDS011;6539;49.476;8.484;2023-01-19T14:44:32;9.53;;;6.70;;
12947;SDS011;6539;49.476;8.484;2023-01-19T14:47:04;13.30;;;7.47;;
12947;SDS011;6539;49.476;8.484;2023-01-19T14:49:40;11.67;;;7.47;;
12947;SDS011;6539;49.476;8.484;2023-01-19T14:52:19;8.77;;;6.07;;
12947;SDS011;6539;49.476;8.484;2023-01-19T14:54:56;11.43;;;6.87;;
12947;SDS011;6539;49.476;8.484;2023-01-19T14:57:26;9.13;;;6.60;;
12947;SDS011;6539;49.476;8.484;2023-01-19T14:59:56;14.07;;;7.10;;
12947;SDS011;6539;49.476;8.484;2023-01-19T15:02:21;9.47;;;6.37;;
12947;SDS011;6539;49.476;8.484;2023-01-19T15:04:50;9.63;;;6.60;;
12947;SDS011;6539;49.476;8.484;2023-01-19T15:07:19;8.07;;;6.40;;
12947;SDS011;6539;49.476;8.484;2023-01-19T15:09:51;11.63;;;6.03;;
12947;SDS011;6539;49.476;8.484;2023-01-19T15:12:19;12.63;;;6.67;;
12947;SDS011;6539;49.476;8.484;2023-01-19T15:14:51;10.07;;;6.10;;
12947;SDS011;6539;49.476;8.484;2023-01-19T15:17:20;7.87;;;5.67;;
12947;SDS011;6539;49.476;8.484;2023-01-19T15:19:53;8.37;;;5.63;;
12947;SDS011;6539;49.476;8.484;2023-01-19T15:22:24;8.43;;;5.63;;
12947;SDS011;6539;49.476;8.484;2023-01-19T15:24:52;8.73;;;5.67;;
12947;SDS011;6539;49.476;8.484;2023-01-19T15:27:21;8.07;;;5.60;;
12947;SDS011;6539;49.476;8.484;2023-01-19T15:29:52;8.43;;;5.97;;
12947;SDS011;6539;49.476;8.484;2023-01-19T15:32:25;7.60;;;5.70;;
12947;SDS011;6539;49.476;8.484;2023-01-19T15:34:50;8.87;;;5.97;;
12947;SDS011;6539;49.476;8.484;2023-01-19T15:37:16;7.43;;;5.30;;
12947;SDS011;6539;49.476;8.484;2023-01-19T15:39:42;7.10;;;5.30;;
12947;SDS011;6539;49.476;8.484;2023-01-19T15:42:09;9.47;;;5.87;;
12947;SDS011;6539;49.476;8.484;2023-01-19T15:44:38;10.17;;;5.40;;
12947;SDS011;6539;49.476;8.484;2023-01-19T15:47:04;11.40;;;6.13;;
12947;SDS011;6539;49.476;8.484;2023-01-19T15:49:30;7.10;;;5.60;;
12947;SDS011;6539;49.476;8.484;2023-01-19T15:51:56;7.07;;;6.30;;
12947;SDS011;6539;49.476;8.484;2023-01-19T15:54:24;9.07;;;5.77;;
12947;SDS011;6539;49.476;8.484;2023-01-19T15:56:50;12.40;;;6.13;;
12947;SDS011;6539;49.476;8.484;2023-01-19T15:59:16;8.23;;;5.53;;
12947;SDS011;6539;49.476;8.484;2023-01-19T16:01:42;9.90;;;5.30;;
12947;SDS011;6539;49.476;8.484;2023-01-19T16:04:11;10.23;;;6.03;;
12947;SDS011;6539;49.476;8.484;2023-01-19T16:06:37;8.97;;;6.70;;
12947;SDS011;6539;49.476;8.484;2023-01-19T16:09:07;7.93;;;6.30;;
12947;SDS011;6539;49.476;8.484;2023-01-19T16:11:33;10.10;;;6.23;;
12947;SDS011;6539;49.476;8.484;2023-01-19T16:14:02;8.17;;;6.33;;
12947;SDS011;6539;49.476;8.484;2023-01-19T16:16:30;9.23;;;5.80;;
12947;SDS011;6539;49.476;8.484;2023-01-19T16:18:59;7.53;;;5.40;;
12947;SDS011;6539;49.476;8.484;2023-01-19T16:21:24;9.93;;;5.67;;
12947;SDS011;6539;49.476;8.484;2023-01-19T16:23:53;6.80;;;5.50;;
12947;SDS011;6539;49.476;8.484;2023-01-19T16:26:30;8.07;;;5.50;;
12947;SDS011;6539;49.476;8.484;2023-01-19T16:29:01;8.07;;;5.23;;
12947;SDS011;6539;49.476;8.484;2023-01-19T16:31:34;8.27;;;6.03;;
12947;SDS011;6539;49.476;8.484;2023-01-19T16:34:07;10.10;;;6.37;;
12947;SDS011;6539;49.476;8.484;2023-01-19T16:36:36;10.37;;;6.23;;
12947;SDS011;6539;49.476;8.484;2023-01-19T16:39:06;7.83;;;6.30;;